sensor_id;sensor_type;location;lat;lon;timestamp;pressure;altitude;pressure_sealevel;temperature;humidity
48216;BME280;34005;48.844;10.098;2023-09-30T00:01:35;97445.63;;;19.79;59.63
48216;BME280;34005;48.844;10.098;2023-09-30T00:04:03;97448.50;;;19.78;59.61
48216;BME280;34005;48.844;10.098;2023-09-30T00:06:34;97449.97;;;19.73;59.92
48216;BME280;34005;48.844;10.098;2023-09-30T00:09:03;97456.72;;;19.69;59.81
48216;BME280;34005;48.844;10.098;2023-09-30T00:11:31;97459.78;;;19.66;59.95
48216;BME280;34005;48.844;10.098;2023-09-30T00:14:11;97463.09;;;19.62;60.05
48216;BME280;34005;48.844;10.098;2023-09-30T00:16:45;97458.44;;;19.57;60.10
48216;BME280;34005;48.844;10.098;2023-09-30T00:19:18;97463.34;;;19.53;60.47
48216;BME280;34005;48.844;10.098;2023-09-30T00:25:38;97454.69;;;19.46;60.86
48216;BME280;34005;48.844;10.098;2023-09-30T00:28:37;97456.34;;;19.41;60.95
48216;BME280;34005;48.844;10.098;2023-09-30T00:31:35;97456.78;;;19.38;60.70
48216;BME280;34005;48.844;10.098;2023-09-30T00:34:03;97447.00;;;19.38;61.00
48216;BME280;34005;48.844;10.098;2023-09-30T00:36:31;97448.41;;;19.41;61.02
48216;BME280;34005;48.844;10.098;2023-09-30T00:38:59;97437.03;;;19.40;60.82
48216;BME280;34005;48.844;10.098;2023-09-30T00:41:28;97446.81;;;19.40;60.88
48216;BME280;34005;48.844;10.098;2023-09-30T00:43:56;97438.25;;;19.38;60.78
48216;BME280;34005;48.844;10.098;2023-09-30T00:46:28;97440.72;;;19.32;60.89
48216;BME280;34005;48.844;10.098;2023-09-30T00:49:18;97448.91;;;19.31;61.29
48216;BME280;34005;48.844;10.098;2023-09-30T00:52:03;97446.47;;;19.29;61.18
48216;BME280;34005;48.844;10.098;2023-09-30T00:54:53;97446.47;;;19.29;60.95
48216;BME280;34005;48.844;10.098;2023-09-30T00:57:34;97438.75;;;19.28;61.08
48216;BME280;34005;48.844;10.098;2023-09-30T01:00:11;97442.63;;;19.25;61.29
48216;BME280;34005;48.844;10.098;2023-09-30T01:02:46;97445.72;;;19.22;61.10
48216;BME280;34005;48.844;10.098;2023-09-30T01:05:37;97449.81;;;19.18;61.21
48216;BME280;34005;48.844;10.098;2023-09-30T01:08:33;97438.25;;;19.12;61.56
48216;BME280;34005;48.844;10.098;2023-09-30T01:11:07;97442.59;;;19.07;61.56
48216;BME280;34005;48.844;10.098;2023-09-30T01:14:46;97444.63;;;19.05;61.94
48216;BME280;34005;48.844;10.098;2023-09-30T01:20:46;97446.03;;;19.07;61.66
48216;BME280;34005;48.844;10.098;2023-09-30T01:23:51;97445.38;;;19.12;61.78
48216;BME280;34005;48.844;10.098;2023-09-30T01:26:21;97437.25;;;19.13;61.55
48216;BME280;34005;48.844;10.098;2023-09-30T01:28:53;97441.28;;;19.16;61.59
48216;BME280;34005;48.844;10.098;2023-09-30T01:32:09;97450.22;;;19.15;61.61
48216;BME280;34005;48.844;10.098;2023-09-30T01:35:02;97447.00;;;19.13;61.63
48216;BME280;34005;48.844;10.098;2023-09-30T01:37:35;97445.97;;;19.14;61.56
48216;BME280;34005;48.844;10.098;2023-09-30T01:40:34;97451.88;;;19.16;61.55
48216;BME280;34005;48.844;10.098;2023-09-30T01:43:42;97460.81;;;19.15;61.58
48216;BME280;34005;48.844;10.098;2023-09-30T01:47:15;97459.81;;;19.16;61.75
48216;BME280;34005;48.844;10.098;2023-09-30T01:50:28;97453.91;;;19.14;61.78
48216;BME280;34005;48.844;10.098;2023-09-30T01:53:16;97460.06;;;19.08;61.73
48216;BME280;34005;48.844;10.098;2023-09-30T01:56:24;97458.06;;;19.03;62.19
48216;BME280;34005;48.844;10.098;2023-09-30T01:59:41;97462.34;;;18.98;62.17
48216;BME280;34005;48.844;10.098;2023-09-30T02:02:28;97459.13;;;18.96;62.79
48216;BME280;34005;48.844;10.098;2023-09-30T02:05:57;97458.97;;;18.90;62.47
48216;BME280;34005;48.844;10.098;2023-09-30T02:08:58;97459.00;;;18.84;62.82
48216;BME280;34005;48.844;10.098;2023-09-30T02:12:11;97459.44;;;18.81;63.04
48216;BME280;34005;48.844;10.098;2023-09-30T02:14:42;97459.44;;;18.74;62.75
48216;BME280;34005;48.844;10.098;2023-09-30T02:17:28;97451.34;;;18.69;63.20
48216;BME280;34005;48.844;10.098;2023-09-30T02:20:17;97456.63;;;18.69;63.30
48216;BME280;34005;48.844;10.098;2023-09-30T02:23:06;97463.56;;;18.63;63.04
48216;BME280;34005;48.844;10.098;2023-09-30T02:25:39;97462.19;;;18.61;63.43
48216;BME280;34005;48.844;10.098;2023-09-30T02:28:25;97466.03;;;18.58;63.79
48216;BME280;34005;48.844;10.098;2023-09-30T02:30:56;97468.91;;;18.57;63.71
48216;BME280;34005;48.844;10.098;2023-09-30T02:33:31;97467.88;;;18.58;63.67
48216;BME280;34005;48.844;10.098;2023-09-30T02:36:16;97468.47;;;18.60;63.67
48216;BME280;34005;48.844;10.098;2023-09-30T02:38:49;97472.94;;;18.59;63.68
48216;BME280;34005;48.844;10.098;2023-09-30T02:41:29;97480.88;;;18.59;63.71
48216;BME280;34005;48.844;10.098;2023-09-30T02:44:21;97478.59;;;18.63;63.71
48216;BME280;34005;48.844;10.098;2023-09-30T02:46:54;97481.03;;;18.64;63.65
48216;BME280;34005;48.844;10.098;2023-09-30T02:49:34;97480.84;;;18.66;63.44
48216;BME280;34005;48.844;10.098;2023-09-30T02:52:18;97486.13;;;18.66;63.40
48216;BME280;34005;48.844;10.098;2023-09-30T02:59:25;97489.16;;;18.63;63.60
48216;BME280;34005;48.844;10.098;2023-09-30T03:02:38;97492.03;;;18.61;63.74
48216;BME280;34005;48.844;10.098;2023-09-30T03:05:18;97499.75;;;18.63;63.51
48216;BME280;34005;48.844;10.098;2023-09-30T03:07:50;97509.50;;;18.62;63.66
48216;BME280;34005;48.844;10.098;2023-09-30T03:10:23;97508.69;;;18.62;63.66
48216;BME280;34005;48.844;10.098;2023-09-30T03:12:53;97500.97;;;18.60;63.78
48216;BME280;34005;48.844;10.098;2023-09-30T03:15:30;97508.91;;;18.60;63.87
48216;BME280;34005;48.844;10.098;2023-09-30T03:18:20;97512.94;;;18.63;63.88
48216;BME280;34005;48.844;10.098;2023-09-30T03:21:01;97511.53;;;18.60;63.87
48216;BME280;34005;48.844;10.098;2023-09-30T03:23:39;97516.03;;;18.60;63.77
48216;BME280;34005;48.844;10.098;2023-09-30T03:26:14;97517.66;;;18.61;63.92
48216;BME280;34005;48.844;10.098;2023-09-30T03:28:59;97518.47;;;18.61;63.72
48216;BME280;34005;48.844;10.098;2023-09-30T03:31:47;97516.63;;;18.62;64.03
48216;BME280;34005;48.844;10.098;2023-09-30T03:34:33;97517.22;;;18.64;63.91
48216;BME280;34005;48.844;10.098;2023-09-30T03:37:04;97512.38;;;18.61;63.97
48216;BME280;34005;48.844;10.098;2023-09-30T03:40:13;97509.34;;;18.57;64.22
48216;BME280;34005;48.844;10.098;2023-09-30T03:42:48;97514.81;;;18.56;64.10
48216;BME280;34005;48.844;10.098;2023-09-30T03:45:38;97507.09;;;18.54;64.33
48216;BME280;34005;48.844;10.098;2023-09-30T03:48:25;97507.94;;;18.55;64.15
48216;BME280;34005;48.844;10.098;2023-09-30T03:51:36;97503.66;;;18.53;64.33
48216;BME280;34005;48.844;10.098;2023-09-30T03:58:00;97517.91;;;18.52;64.00
48216;BME280;34005;48.844;10.098;2023-09-30T04:00:33;97517.91;;;18.52;64.17
48216;BME280;34005;48.844;10.098;2023-09-30T04:03:08;97515.66;;;18.49;64.38
48216;BME280;34005;48.844;10.098;2023-09-30T04:05:38;97515.06;;;18.47;64.38
48216;BME280;34005;48.844;10.098;2023-09-30T04:08:11;97513.44;;;18.46;64.54
48216;BME280;34005;48.844;10.098;2023-09-30T04:11:11;97511.59;;;18.47;64.12
48216;BME280;34005;48.844;10.098;2023-09-30T04:14:00;97506.75;;;18.44;64.32
48216;BME280;34005;48.844;10.098;2023-09-30T04:16:53;97507.56;;;18.44;64.19
48216;BME280;34005;48.844;10.098;2023-09-30T04:19:40;97500.66;;;18.43;63.99
48216;BME280;34005;48.844;10.098;2023-09-30T04:22:25;97502.72;;;18.41;64.44
48216;BME280;34005;48.844;10.098;2023-09-30T04:28:31;97504.34;;;18.36;65.02
48216;BME280;34005;48.844;10.098;2023-09-30T04:31:08;97505.56;;;18.33;64.88
48216;BME280;34005;48.844;10.098;2023-09-30T04:33:49;97501.09;;;18.33;64.80
48216;BME280;34005;48.844;10.098;2023-09-30T04:36:37;97511.84;;;18.32;64.74
48216;BME280;34005;48.844;10.098;2023-09-30T04:39:13;97511.69;;;18.27;64.96
48216;BME280;34005;48.844;10.098;2023-09-30T04:42:04;97509.47;;;18.24;65.28
48216;BME280;34005;48.844;10.098;2023-09-30T04:45:04;97524.31;;;18.18;65.50
48216;BME280;34005;48.844;10.098;2023-09-30T04:47:35;97534.28;;;18.09;65.45
48216;BME280;34005;48.844;10.098;2023-09-30T04:50:08;97533.69;;;18.01;65.72
48216;BME280;34005;48.844;10.098;2023-09-30T04:52:53;97535.34;;;17.95;65.90
48216;BME280;34005;48.844;10.098;2023-09-30T04:56:03;97532.09;;;17.86;66.15
48216;BME280;34005;48.844;10.098;2023-09-30T04:58:40;97524.34;;;17.78;66.73
48216;BME280;34005;48.844;10.098;2023-09-30T05:01:26;97526.19;;;17.71;67.03
48216;BME280;34005;48.844;10.098;2023-09-30T05:03:57;97530.44;;;17.65;67.09
48216;BME280;34005;48.844;10.098;2023-09-30T05:06:30;97529.44;;;17.60;67.36
48216;BME280;34005;48.844;10.098;2023-09-30T05:09:08;97528.00;;;17.57;67.84
48216;BME280;34005;48.844;10.098;2023-09-30T05:15:08;97523.53;;;17.58;67.57
48216;BME280;34005;48.844;10.098;2023-09-30T05:18:16;97537.75;;;17.57;67.77
48216;BME280;34005;48.844;10.098;2023-09-30T05:23:37;97540.22;;;17.52;67.64
48216;BME280;34005;48.844;10.098;2023-09-30T05:26:04;97549.13;;;17.50;67.71
48216;BME280;34005;48.844;10.098;2023-09-30T05:28:32;97544.66;;;17.51;67.76
48216;BME280;34005;48.844;10.098;2023-09-30T05:31:01;97545.25;;;17.53;67.82
48216;BME280;34005;48.844;10.098;2023-09-30T05:33:30;97551.94;;;17.56;67.75
48216;BME280;34005;48.844;10.098;2023-09-30T05:35:58;97553.16;;;17.53;67.60
48216;BME280;34005;48.844;10.098;2023-09-30T05:38:26;97566.16;;;17.48;67.79
48216;BME280;34005;48.844;10.098;2023-09-30T05:40:54;97568.59;;;17.43;67.81
48216;BME280;34005;48.844;10.098;2023-09-30T05:43:22;97559.47;;;17.39;67.96
48216;BME280;34005;48.844;10.098;2023-09-30T05:45:49;97555.81;;;17.40;68.20
48216;BME280;34005;48.844;10.098;2023-09-30T05:48:21;97557.63;;;17.46;68.24
48216;BME280;34005;48.844;10.098;2023-09-30T05:50:50;97558.25;;;17.55;68.24
48216;BME280;34005;48.844;10.098;2023-09-30T05:53:18;97551.38;;;17.60;67.60
48216;BME280;34005;48.844;10.098;2023-09-30T05:55:47;97551.97;;;17.62;67.41
48216;BME280;34005;48.844;10.098;2023-09-30T05:58:15;97554.19;;;17.65;67.58
48216;BME280;34005;48.844;10.098;2023-09-30T06:00:43;97547.88;;;17.66;67.58
48216;BME280;34005;48.844;10.098;2023-09-30T06:03:11;97547.09;;;17.66;67.42
48216;BME280;34005;48.844;10.098;2023-09-30T06:05:40;97553.59;;;17.63;67.48
48216;BME280;34005;48.844;10.098;2023-09-30T06:08:10;97559.06;;;17.62;67.54
48216;BME280;34005;48.844;10.098;2023-09-30T06:10:41;97571.25;;;17.63;67.57
48216;BME280;34005;48.844;10.098;2023-09-30T06:13:11;97568.19;;;17.66;67.46
48216;BME280;34005;48.844;10.098;2023-09-30T06:15:40;97566.97;;;17.68;67.22
48216;BME280;34005;48.844;10.098;2023-09-30T06:18:09;97568.00;;;17.67;67.41
48216;BME280;34005;48.844;10.098;2023-09-30T06:20:40;97573.09;;;17.69;67.14
48216;BME280;34005;48.844;10.098;2023-09-30T06:23:10;97562.91;;;17.73;67.09
48216;BME280;34005;48.844;10.098;2023-09-30T06:25:37;97566.97;;;17.75;67.03
48216;BME280;34005;48.844;10.098;2023-09-30T06:28:06;97591.34;;;17.77;66.81
48216;BME280;34005;48.844;10.098;2023-09-30T06:30:34;97590.09;;;17.80;67.05
48216;BME280;34005;48.844;10.098;2023-09-30T06:33:03;97590.09;;;17.80;66.99
48216;BME280;34005;48.844;10.098;2023-09-30T06:35:32;97598.44;;;17.77;67.29
48216;BME280;34005;48.844;10.098;2023-09-30T06:38:03;97601.09;;;17.77;67.30
48216;BME280;34005;48.844;10.098;2023-09-30T06:40:34;97613.28;;;17.78;67.41
48216;BME280;34005;48.844;10.098;2023-09-30T06:43:06;97615.31;;;17.76;67.35
48216;BME280;34005;48.844;10.098;2023-09-30T06:45:34;97618.34;;;17.73;67.62
48216;BME280;34005;48.844;10.098;2023-09-30T06:48:08;97626.06;;;17.74;67.48
48216;BME280;34005;48.844;10.098;2023-09-30T06:50:40;97619.34;;;17.71;67.74
48216;BME280;34005;48.844;10.098;2023-09-30T06:53:07;97628.69;;;17.74;67.69
48216;BME280;34005;48.844;10.098;2023-09-30T06:55:38;97639.06;;;17.76;67.84
48216;BME280;34005;48.844;10.098;2023-09-30T06:58:06;97633.97;;;17.81;67.61
48216;BME280;34005;48.844;10.098;2023-09-30T07:00:35;97629.94;;;17.85;67.47
48216;BME280;34005;48.844;10.098;2023-09-30T07:03:03;97643.75;;;17.87;67.47
48216;BME280;34005;48.844;10.098;2023-09-30T07:05:31;97652.28;;;17.89;66.96
48216;BME280;34005;48.844;10.098;2023-09-30T07:07:59;97654.72;;;17.90;66.81
48216;BME280;34005;48.844;10.098;2023-09-30T07:10:27;97657.16;;;17.92;67.00
48216;BME280;34005;48.844;10.098;2023-09-30T07:12:57;97655.13;;;17.94;66.93
48216;BME280;34005;48.844;10.098;2023-09-30T07:15:25;97656.75;;;17.95;66.90
48216;BME280;34005;48.844;10.098;2023-09-30T07:17:52;97656.75;;;17.95;66.35
48216;BME280;34005;48.844;10.098;2023-09-30T07:20:20;97653.50;;;17.93;66.30
48216;BME280;34005;48.844;10.098;2023-09-30T07:22:49;97650.88;;;17.93;66.09
48216;BME280;34005;48.844;10.098;2023-09-30T07:25:32;97647.41;;;17.92;65.90
48216;BME280;34005;48.844;10.098;2023-09-30T07:28:02;97651.88;;;17.92;65.79
48216;BME280;34005;48.844;10.098;2023-09-30T07:30:30;97645.38;;;17.95;65.89
48216;BME280;34005;48.844;10.098;2023-09-30T07:32:57;97647.00;;;18.02;65.55
48216;BME280;34005;48.844;10.098;2023-09-30T07:35:25;97648.63;;;18.10;65.42
48216;BME280;34005;48.844;10.098;2023-09-30T07:37:53;97651.69;;;18.14;65.06
48216;BME280;34005;48.844;10.098;2023-09-30T07:40:20;97662.44;;;18.19;64.86
48216;BME280;34005;48.844;10.098;2023-09-30T07:42:48;97681.53;;;18.21;64.39
48216;BME280;34005;48.844;10.098;2023-09-30T07:45:17;97669.53;;;18.18;64.17
48216;BME280;34005;48.844;10.098;2023-09-30T07:47:46;97676.25;;;18.21;64.07
48216;BME280;34005;48.844;10.098;2023-09-30T07:50:14;97669.34;;;18.26;63.76
48216;BME280;34005;48.844;10.098;2023-09-30T07:52:42;97678.66;;;18.42;64.02
48216;BME280;34005;48.844;10.098;2023-09-30T07:55:10;97676.19;;;18.67;63.48
48216;BME280;34005;48.844;10.098;2023-09-30T07:57:40;97672.91;;;18.92;61.81
48216;BME280;34005;48.844;10.098;2023-09-30T08:00:10;97676.00;;;19.27;61.20
48216;BME280;34005;48.844;10.098;2023-09-30T08:02:43;97677.38;;;19.82;59.03
48216;BME280;34005;48.844;10.098;2023-09-30T08:05:12;97677.78;;;20.29;57.57
48216;BME280;34005;48.844;10.098;2023-09-30T08:07:40;97679.72;;;20.65;56.36
48216;BME280;34005;48.844;10.098;2023-09-30T08:10:08;97680.19;;;20.81;56.13
48216;BME280;34005;48.844;10.098;2023-09-30T08:12:40;97667.53;;;20.83;55.97
48216;BME280;34005;48.844;10.098;2023-09-30T08:15:10;97679.53;;;20.85;55.49
48216;BME280;34005;48.844;10.098;2023-09-30T08:17:39;97685.78;;;20.91;54.93
48216;BME280;34005;48.844;10.098;2023-09-30T08:20:09;97681.59;;;21.02;54.86
48216;BME280;34005;48.844;10.098;2023-09-30T08:22:37;97694.84;;;21.02;54.66
48216;BME280;34005;48.844;10.098;2023-09-30T08:25:05;97690.28;;;20.90;53.94
48216;BME280;34005;48.844;10.098;2023-09-30T08:27:33;97679.81;;;20.95;53.36
48216;BME280;34005;48.844;10.098;2023-09-30T08:30:02;97669.72;;;21.04;53.55
48216;BME280;34005;48.844;10.098;2023-09-30T08:32:32;97685.94;;;21.14;53.04
48216;BME280;34005;48.844;10.098;2023-09-30T08:35:01;97683.78;;;21.23;52.34
48216;BME280;34005;48.844;10.098;2023-09-30T08:37:30;97690.53;;;21.37;51.14
48216;BME280;34005;48.844;10.098;2023-09-30T08:39:59;97690.97;;;21.53;51.28
48216;BME280;34005;48.844;10.098;2023-09-30T08:42:27;97689.63;;;21.62;50.83
48216;BME280;34005;48.844;10.098;2023-09-30T08:44:59;97691.59;;;21.67;50.41
48216;BME280;34005;48.844;10.098;2023-09-30T08:47:27;97689.00;;;21.78;50.05
48216;BME280;34005;48.844;10.098;2023-09-30T08:49:56;97684.06;;;21.94;49.35
48216;BME280;34005;48.844;10.098;2023-09-30T08:52:34;97677.63;;;22.13;48.92
48216;BME280;34005;48.844;10.098;2023-09-30T08:55:06;97663.22;;;22.33;48.26
48216;BME280;34005;48.844;10.098;2023-09-30T08:57:36;97657.53;;;22.41;47.02
48216;BME280;34005;48.844;10.098;2023-09-30T09:00:07;97659.88;;;22.37;47.07
48216;BME280;34005;48.844;10.098;2023-09-30T09:02:38;97657.88;;;22.56;47.03
48216;BME280;34005;48.844;10.098;2023-09-30T09:05:06;97653.91;;;22.94;46.69
48216;BME280;34005;48.844;10.098;2023-09-30T09:07:36;97661.03;;;23.17;46.01
48216;BME280;34005;48.844;10.098;2023-09-30T09:10:05;97673.31;;;23.18;45.98
48216;BME280;34005;48.844;10.098;2023-09-30T09:12:35;97666.97;;;23.08;46.26
48216;BME280;34005;48.844;10.098;2023-09-30T09:15:05;97663.16;;;22.92;45.84
48216;BME280;34005;48.844;10.098;2023-09-30T09:17:41;97657.97;;;22.85;45.55
48216;BME280;34005;48.844;10.098;2023-09-30T09:20:10;97656.56;;;22.94;45.77
48216;BME280;34005;48.844;10.098;2023-09-30T09:22:42;97650.09;;;22.90;45.96
48216;BME280;34005;48.844;10.098;2023-09-30T09:25:11;97655.75;;;23.06;45.57
48216;BME280;34005;48.844;10.098;2023-09-30T09:27:38;97668.50;;;23.32;44.47
48216;BME280;34005;48.844;10.098;2023-09-30T09:30:14;97669.56;;;23.31;44.88
48216;BME280;34005;48.844;10.098;2023-09-30T09:32:52;97666.81;;;23.72;44.18
48216;BME280;34005;48.844;10.098;2023-09-30T09:35:21;97656.34;;;24.33;43.01
48216;BME280;34005;48.844;10.098;2023-09-30T09:37:57;97667.09;;;24.94;41.51
48216;BME280;34005;48.844;10.098;2023-09-30T09:40:26;97665.03;;;25.23;41.09
48216;BME280;34005;48.844;10.098;2023-09-30T09:42:54;97662.53;;;25.38;39.91
48216;BME280;34005;48.844;10.098;2023-09-30T09:45:24;97667.91;;;25.65;39.10
48216;BME280;34005;48.844;10.098;2023-09-30T09:47:52;97674.25;;;25.59;38.62
48216;BME280;34005;48.844;10.098;2023-09-30T09:50:22;97670.91;;;25.47;38.19
48216;BME280;34005;48.844;10.098;2023-09-30T09:52:53;97670.44;;;25.50;37.70
48216;BME280;34005;48.844;10.098;2023-09-30T09:55:24;97670.31;;;25.67;37.48
48216;BME280;34005;48.844;10.098;2023-09-30T09:57:53;97673.63;;;25.79;37.87
48216;BME280;34005;48.844;10.098;2023-09-30T10:00:23;97666.44;;;26.07;37.43
48216;BME280;34005;48.844;10.098;2023-09-30T10:02:52;97667.13;;;26.35;37.54
48216;BME280;34005;48.844;10.098;2023-09-30T10:05:21;97657.97;;;26.58;37.58
48216;BME280;34005;48.844;10.098;2023-09-30T10:07:52;97659.91;;;26.73;36.50
48216;BME280;34005;48.844;10.098;2023-09-30T10:10:23;97663.72;;;26.87;36.83
48216;BME280;34005;48.844;10.098;2023-09-30T10:12:51;97652.28;;;27.02;36.57
48216;BME280;34005;48.844;10.098;2023-09-30T10:15:38;97645.69;;;27.25;36.81
48216;BME280;34005;48.844;10.098;2023-09-30T10:18:10;97633.41;;;27.44;35.95
48216;BME280;34005;48.844;10.098;2023-09-30T10:20:43;97640.94;;;27.58;35.71
48216;BME280;34005;48.844;10.098;2023-09-30T10:23:19;97638.25;;;27.63;35.04
48216;BME280;34005;48.844;10.098;2023-09-30T10:25:48;97642.53;;;27.53;35.72
48216;BME280;34005;48.844;10.098;2023-09-30T10:28:37;97644.69;;;27.51;35.98
48216;BME280;34005;48.844;10.098;2023-09-30T10:31:12;97642.00;;;27.57;35.38
48216;BME280;34005;48.844;10.098;2023-09-30T10:36:52;97632.94;;;27.93;34.96
48216;BME280;34005;48.844;10.098;2023-09-30T10:39:54;97647.69;;;27.96;35.08
48216;BME280;34005;48.844;10.098;2023-09-30T10:42:45;97642.56;;;28.15;33.78
48216;BME280;34005;48.844;10.098;2023-09-30T10:45:42;97644.72;;;28.23;33.48
48216;BME280;34005;48.844;10.098;2023-09-30T10:48:36;97655.41;;;28.33;34.85
48216;BME280;34005;48.844;10.098;2023-09-30T10:51:11;97654.38;;;28.24;33.20
48216;BME280;34005;48.844;10.098;2023-09-30T10:53:43;97649.00;;;27.99;33.49
48216;BME280;34005;48.844;10.098;2023-09-30T10:56:11;97645.50;;;27.78;33.21
48216;BME280;34005;48.844;10.098;2023-09-30T10:58:42;97649.50;;;27.54;33.88
48216;BME280;34005;48.844;10.098;2023-09-30T11:01:10;97640.34;;;27.35;34.23
48216;BME280;34005;48.844;10.098;2023-09-30T11:03:37;97635.78;;;27.25;34.47
48216;BME280;34005;48.844;10.098;2023-09-30T11:06:05;97633.81;;;27.10;34.14
48216;BME280;34005;48.844;10.098;2023-09-30T11:08:40;97627.53;;;26.74;33.94
48216;BME280;34005;48.844;10.098;2023-09-30T11:11:11;97625.97;;;26.36;34.80
48216;BME280;34005;48.844;10.098;2023-09-30T11:13:42;97621.78;;;26.13;35.38
48216;BME280;34005;48.844;10.098;2023-09-30T11:16:09;97621.41;;;25.94;35.48
48216;BME280;34005;48.844;10.098;2023-09-30T11:18:37;97622.63;;;25.81;35.95
48216;BME280;34005;48.844;10.098;2023-09-30T11:21:07;97616.16;;;25.77;35.75
48216;BME280;34005;48.844;10.098;2023-09-30T11:23:35;97609.91;;;25.66;35.55
48216;BME280;34005;48.844;10.098;2023-09-30T11:26:04;97602.84;;;25.49;35.64
48216;BME280;34005;48.844;10.098;2023-09-30T11:28:37;97597.06;;;25.31;36.62
48216;BME280;34005;48.844;10.098;2023-09-30T11:31:11;97589.66;;;25.16;36.92
48216;BME280;34005;48.844;10.098;2023-09-30T11:33:47;97580.78;;;25.10;37.10
48216;BME280;34005;48.844;10.098;2023-09-30T11:36:16;97587.34;;;24.97;37.58
48216;BME280;34005;48.844;10.098;2023-09-30T11:38:45;97591.94;;;24.80;37.43
48216;BME280;34005;48.844;10.098;2023-09-30T11:41:13;97592.31;;;24.66;37.45
48216;BME280;34005;48.844;10.098;2023-09-30T11:44:03;97589.63;;;25.11;37.00
48216;BME280;34005;48.844;10.098;2023-09-30T11:46:51;97587.50;;;26.47;35.23
48216;BME280;34005;48.844;10.098;2023-09-30T11:49:27;97591.88;;;27.83;32.42
48216;BME280;34005;48.844;10.098;2023-09-30T11:51:55;97584.03;;;29.08;30.34
48216;BME280;34005;48.844;10.098;2023-09-30T11:54:29;97575.84;;;30.02;28.10
48216;BME280;34005;48.844;10.098;2023-09-30T11:56:59;97570.75;;;30.54;27.92
48216;BME280;34005;48.844;10.098;2023-09-30T11:59:26;97582.00;;;31.04;27.23
48216;BME280;34005;48.844;10.098;2023-09-30T12:01:55;97588.47;;;31.41;25.59
48216;BME280;34005;48.844;10.098;2023-09-30T12:04:40;97581.63;;;31.30;25.93
48216;BME280;34005;48.844;10.098;2023-09-30T12:07:08;97584.44;;;30.82;26.85
48216;BME280;34005;48.844;10.098;2023-09-30T12:09:36;97582.63;;;30.24;27.49
48216;BME280;34005;48.844;10.098;2023-09-30T12:12:07;97600.34;;;29.66;28.30
48216;BME280;34005;48.844;10.098;2023-09-30T12:14:36;97591.34;;;29.02;28.20
48216;BME280;34005;48.844;10.098;2023-09-30T12:17:05;97600.38;;;28.57;29.18
48216;BME280;34005;48.844;10.098;2023-09-30T12:19:38;97597.78;;;28.21;30.15
48216;BME280;34005;48.844;10.098;2023-09-30T12:22:05;97601.28;;;27.85;30.33
48216;BME280;34005;48.844;10.098;2023-09-30T12:24:33;97590.53;;;27.49;31.15
48216;BME280;34005;48.844;10.098;2023-09-30T12:27:01;97592.38;;;27.28;31.49
48216;BME280;34005;48.844;10.098;2023-09-30T12:29:28;97586.44;;;27.16;31.56
48216;BME280;34005;48.844;10.098;2023-09-30T12:31:56;97590.69;;;27.02;31.76
48216;BME280;34005;48.844;10.098;2023-09-30T12:34:25;97588.50;;;26.88;31.83
48216;BME280;34005;48.844;10.098;2023-09-30T12:36:54;97584.19;;;26.72;31.54
48216;BME280;34005;48.844;10.098;2023-09-30T12:39:22;97583.50;;;26.49;31.67
48216;BME280;34005;48.844;10.098;2023-09-30T12:41:53;97582.31;;;26.30;32.02
48216;BME280;34005;48.844;10.098;2023-09-30T12:44:21;97579.31;;;26.16;32.65
48216;BME280;34005;48.844;10.098;2023-09-30T12:46:49;97572.84;;;26.07;32.82
48216;BME280;34005;48.844;10.098;2023-09-30T12:49:17;97562.06;;;25.97;32.90
48216;BME280;34005;48.844;10.098;2023-09-30T12:51:48;97567.91;;;25.88;33.85
48216;BME280;34005;48.844;10.098;2023-09-30T12:54:15;97569.97;;;25.81;33.83
48216;BME280;34005;48.844;10.098;2023-09-30T12:56:45;97569.88;;;25.71;34.04
48216;BME280;34005;48.844;10.098;2023-09-30T12:59:13;97570.91;;;25.65;33.96
48216;BME280;34005;48.844;10.098;2023-09-30T13:01:41;97577.28;;;25.59;33.30
48216;BME280;34005;48.844;10.098;2023-09-30T13:04:09;97573.41;;;25.44;33.15
48216;BME280;34005;48.844;10.098;2023-09-30T13:06:37;97577.59;;;25.35;33.26
48216;BME280;34005;48.844;10.098;2023-09-30T13:09:06;97573.97;;;25.19;33.55
48216;BME280;34005;48.844;10.098;2023-09-30T13:11:35;97565.78;;;25.04;33.81
48216;BME280;34005;48.844;10.098;2023-09-30T13:14:03;97556.59;;;24.95;34.13
48216;BME280;34005;48.844;10.098;2023-09-30T13:16:31;97549.91;;;24.92;34.62
48216;BME280;34005;48.844;10.098;2023-09-30T13:18:59;97552.84;;;24.91;34.39
48216;BME280;34005;48.844;10.098;2023-09-30T13:21:28;97556.31;;;24.91;34.58
48216;BME280;34005;48.844;10.098;2023-09-30T13:23:56;97550.16;;;24.91;34.62
48216;BME280;34005;48.844;10.098;2023-09-30T13:26:25;97549.28;;;24.85;34.45
48216;BME280;34005;48.844;10.098;2023-09-30T13:28:53;97548.94;;;24.76;34.93
48216;BME280;34005;48.844;10.098;2023-09-30T13:31:21;97544.28;;;24.66;34.59
48216;BME280;34005;48.844;10.098;2023-09-30T13:33:48;97549.31;;;24.63;34.71
48216;BME280;34005;48.844;10.098;2023-09-30T13:36:16;97549.56;;;24.61;35.04
48216;BME280;34005;48.844;10.098;2023-09-30T13:38:43;97538.28;;;24.54;34.83
48216;BME280;34005;48.844;10.098;2023-09-30T13:41:12;97540.38;;;24.52;35.27
48216;BME280;34005;48.844;10.098;2023-09-30T13:43:41;97540.28;;;24.47;36.36
48216;BME280;34005;48.844;10.098;2023-09-30T13:46:09;97535.94;;;24.41;36.72
48216;BME280;34005;48.844;10.098;2023-09-30T13:48:36;97530.00;;;24.34;36.71
48216;BME280;34005;48.844;10.098;2023-09-30T13:51:05;97529.88;;;24.23;36.60
48216;BME280;34005;48.844;10.098;2023-09-30T13:53:33;97541.50;;;24.17;36.78
48216;BME280;34005;48.844;10.098;2023-09-30T13:56:01;97543.28;;;24.12;37.15
48216;BME280;34005;48.844;10.098;2023-09-30T13:58:29;97535.97;;;24.02;37.59
48216;BME280;34005;48.844;10.098;2023-09-30T14:00:59;97537.91;;;23.90;37.71